Radar AviationWeather DUATS TFRs Wunderground Accuweather Weather.com

alt : Radar

TAFs

KDTW 230258Z 2303/2406 VRB03KT P6SM SCT028 OVC040
     TEMPO 2309/2313 OVC028
   FM231700 14005KT P6SM SCT028 BKN045
     TEMPO 2321/2401 6SM SHRA SCT025 BKN035
   FM240100 VRB04KT P6SM SCT040 OVC060
KCLE 230243Z 2303/2406 03008KT P6SM BKN015 OVC024
     TEMPO 2303/2305 -RA SCT015 OVC025
   FM230900 14005KT P6SM SCT010 OVC025
     TEMPO 2309/2313 BKN010 OVC025
   FM231400 15005KT P6SM SCT030 BKN045
     PROB30 2318/2324 4SM -TSRA BKN030CB OVC040
   FM240000 04005KT P6SM VCSH SCT035 BKN080
   FM240400 VRB02KT P6SM BKN035 OVC070
KFDY 230132Z 2302/2324 03008KT P6SM SCT025 OVC035
   FM230700 VRB03KT P6SM SCT015 OVC025
     TEMPO 2310/2314 BKN015 OVC025
   FM231400 36004KT P6SM BKN015 BKN040
   FM231600 01004KT P6SM BKN015 BKN035
     PROB30 2320/2324 4SM -TSRA BKN020CB
KFWA 230028Z 2300/2324 02004KT P6SM BKN050
   FM230900 VRB03KT 5SM BR OVC015
   FM231600 01006KT P6SM OVC035
KTOL 222342Z 2300/2324 03008KT P6SM VCSH SCT030 BKN045
     TEMPO 2300/2302 BKN030
   FM230200 02005KT P6SM SCT035 BKN070
     TEMPO 2302/2306 BKN025
   FM230600 VRB02KT P6SM SCT015 BKN025
     TEMPO 2310/2314 BKN015 OVC025
   FM232200 VRB02KT P6SM SCT035 BKN040
KJXN 222340Z 2300/2324 02008KT P6SM OVC040
   FM231800 00000KT P6SM SCT020 BKN025

METARs

KDUH 230315Z AUTO 00000KT 10SM CLR 18/16 A2988 RMK AO2 T01780156
KJXN 230256Z AUTO 00000KT 10SM BKN049 OVC060 18/16 A2989 RMK AO2 SLP118 T01780156 50002
KFWA 230254Z 03008KT 10SM FEW048 FEW110 BKN130 21/14 A2990 RMK AO2 SLP120 T02060139 51015 $
KDTW 230253Z 05003KT 9SM OVC030 19/13 A2988 RMK AO2 SLP115 T01890133 51006 $
KFDY 230253Z AUTO 03005KT 10SM FEW035 19/16 A2987 RMK AO2 SLP106 T01940156 53008
KTDZ 230253Z AUTO 34004KT 10SM FEW050 FEW095 19/14 A2988 RMK AO2 SLP115 T01890139 51007 $
KTOL 230252Z 00000KT 10SM CLR 18/14 A2988 RMK AO2 SLP114 T01830139 53008
KCLE 230251Z 02004KT 10SM BKN017 BKN024 OVC055 21/17 A2987 RMK AO2 SLP110 T02060167 51006 $

alt : Satellite

alt : TFRs